Time;durP1;ratioP1;P1;durP2;ratioP2;P2;SDS_P1;SDS_P2;PMS_P1;PMS_P2;Temp;Humidity;BMP_temperature;BMP_pressure;BME280_temperature;BME280_humidity;BME280_pressure;Samples;Min_cycle;Max_cycle;Signal;HPM_P1;HPM_P2
2023/01/02 00:01:07;;;;;;;126.15;92.28;;;;;;;;;;5110859;27;20389;-73
2023/01/02 00:03:32;;;;;;;116.97;84.75;;;;;;;;;;5117055;27;20015;-74
2023/01/02 00:05:57;;;;;;;59.05;44.42;;;;;;;;;;5109880;27;20027;-74
2023/01/02 00:08:22;;;;;;;66.20;43.90;;;;;;;;;;5096788;27;21269;-73
2023/01/02 00:10:48;;;;;;;82.18;56.78;;;;;;;;;;5105032;27;20031;-73
2023/01/02 00:13:13;;;;;;;101.53;73.85;;;;;;;;;;5102125;27;20038;-72
2023/01/02 00:15:38;;;;;;;102.95;76.70;;;;;;;;;;5088842;27;20482;-74
2023/01/02 00:18:04;;;;;;;129.15;92.63;;;;;;;;;;5112183;27;20072;-72
2023/01/02 00:20:29;;;;;;;222.13;138.85;;;;;;;;;;5114279;27;20109;-72
2023/01/02 00:22:54;;;;;;;209.00;130.00;;;;;;;;;;5114727;27;20033;-72
2023/01/02 00:25:20;;;;;;;172.45;115.03;;;;;;;;;;5112373;27;20050;-73
2023/01/02 00:27:45;;;;;;;177.18;115.50;;;;;;;;;;5108525;27;20406;-75
2023/01/02 00:30:11;;;;;;;206.27;128.23;;;;;;;;;;5103001;27;20027;-75
2023/01/02 00:32:36;;;;;;;105.47;72.28;;;;;;;;;;5099472;27;20020;-72
2023/01/02 00:35:01;;;;;;;111.22;78.32;;;;;;;;;;5114544;27;20046;-75
2023/01/02 00:37:27;;;;;;;66.93;49.47;;;;;;;;;;5107890;27;20026;-73
2023/01/02 00:39:52;;;;;;;83.68;61.58;;;;;;;;;;5106675;27;20464;-72
2023/01/02 00:42:17;;;;;;;61.25;46.22;;;;;;;;;;5109206;27;20517;-73
2023/01/02 00:44:42;;;;;;;127.40;85.65;;;;;;;;;;5096397;27;20027;-72
2023/01/02 00:47:08;;;;;;;89.03;69.07;;;;;;;;;;5110441;28;20034;-73
2023/01/02 00:49:33;;;;;;;61.95;48.05;;;;;;;;;;5109404;28;20413;-72
2023/01/02 00:51:58;;;;;;;66.63;49.40;;;;;;;;;;5111470;28;20106;-72
2023/01/02 00:54:23;;;;;;;67.60;49.55;;;;;;;;;;5113602;28;20037;-72
2023/01/02 00:56:49;;;;;;;78.25;56.60;;;;;;;;;;5106604;28;20032;-75
2023/01/02 00:59:14;;;;;;;79.38;56.85;;;;;;;;;;5096905;28;20339;-72
2023/01/02 01:01:39;;;;;;;160.07;105.60;;;;;;;;;;5107878;28;20055;-73
2023/01/02 01:04:05;;;;;;;76.05;56.67;;;;;;;;;;5091033;28;20031;-73
2023/01/02 01:06:31;;;;;;;148.85;96.32;;;;;;;;;;5113429;28;20102;-72
2023/01/02 01:08:57;;;;;;;59.25;43.90;;;;;;;;;;5112293;28;20229;-73
2023/01/02 01:11:23;;;;;;;92.65;67.75;;;;;;;;;;5110808;28;20028;-72
2023/01/02 01:13:48;;;;;;;96.38;66.95;;;;;;;;;;5107054;28;20084;-71
2023/01/02 01:16:16;;;;;;;92.95;67.20;;;;;;;;;;5099259;28;20028;-75
2023/01/02 01:18:42;;;;;;;97.90;67.57;;;;;;;;;;5096257;28;20038;-73
2023/01/02 01:21:08;;;;;;;65.10;48.95;;;;;;;;;;5113178;28;20019;-71
2023/01/02 01:23:33;;;;;;;83.53;60.90;;;;;;;;;;5109081;28;20731;-71
2023/01/02 01:26:01;;;;;;;98.97;66.53;;;;;;;;;;5108060;28;20059;-74
2023/01/02 01:28:26;;;;;;;84.82;60.13;;;;;;;;;;5110085;28;20027;-72
2023/01/02 01:30:52;;;;;;;68.65;47.80;;;;;;;;;;5113674;27;20030;-72
2023/01/02 01:33:17;;;;;;;80.70;57.33;;;;;;;;;;5103752;27;20434;-71
2023/01/02 01:35:42;;;;;;;116.80;82.45;;;;;;;;;;5115259;27;20103;-72
2023/01/02 01:38:08;;;;;;;102.72;75.88;;;;;;;;;;5109822;27;20121;-72
2023/01/02 01:40:37;;;;;;;127.93;84.65;;;;;;;;;;5112656;27;20076;-71
2023/01/02 01:43:02;;;;;;;130.35;91.30;;;;;;;;;;5104338;27;20643;-71
2023/01/02 01:45:27;;;;;;;144.20;96.90;;;;;;;;;;5116673;27;20422;-72
2023/01/02 01:47:54;;;;;;;140.43;93.65;;;;;;;;;;5113286;27;20051;-72
2023/01/02 01:50:25;;;;;;;113.32;80.72;;;;;;;;;;5102374;27;20038;-74
2023/01/02 01:52:54;;;;;;;97.20;66.22;;;;;;;;;;5112959;27;20052;-72
2023/01/02 01:55:21;;;;;;;73.90;53.05;;;;;;;;;;5117586;27;20023;-72
2023/01/02 01:58:07;;;;;;;62.72;45.20;;;;;;;;;;5114825;27;20211;-74
2023/01/02 02:00:33;;;;;;;70.30;49.95;;;;;;;;;;5115931;27;20076;-73
2023/01/02 02:03:00;;;;;;;68.80;47.10;;;;;;;;;;5099089;27;20031;-73
2023/01/02 02:05:27;;;;;;;37.25;26.33;;;;;;;;;;5102730;27;20031;-73
2023/01/02 02:08:03;;;;;;;65.85;43.88;;;;;;;;;;5110367;27;20047;-71
2023/01/02 02:10:28;;;;;;;49.42;37.45;;;;;;;;;;5100672;27;20066;-71
2023/01/02 02:12:54;;;;;;;43.78;33.47;;;;;;;;;;5109008;27;20573;-72
2023/01/02 02:15:25;;;;;;;189.18;148.63;;;;;;;;;;5099866;27;20023;-74
2023/01/02 02:18:10;;;;;;;121.90;98.35;;;;;;;;;;5109727;27;20024;-75
2023/01/02 02:20:47;;;;;;;105.70;86.70;;;;;;;;;;5102198;27;20054;-73
2023/01/02 02:23:41;;;;;;;75.38;54.25;;;;;;;;;;5103126;27;20365;-74
2023/01/02 02:26:25;;;;;;;84.28;61.42;;;;;;;;;;5113869;27;20042;-76
2023/01/02 02:29:09;;;;;;;83.85;60.03;;;;;;;;;;5115873;27;20023;-75
2023/01/02 02:31:40;;;;;;;64.85;48.97;;;;;;;;;;5118211;27;20027;-72
2023/01/02 02:34:13;;;;;;;62.58;45.13;;;;;;;;;;5094916;27;20711;-73
2023/01/02 02:36:41;;;;;;;59.85;46.42;;;;;;;;;;5101919;27;20022;-75
2023/01/02 02:39:15;;;;;;;85.82;55.72;;;;;;;;;;5098176;27;20035;-73
2023/01/02 02:41:50;;;;;;;125.85;87.75;;;;;;;;;;5103307;27;20022;-71
2023/01/02 02:44:21;;;;;;;97.68;60.35;;;;;;;;;;5110942;27;20024;-72
2023/01/02 02:46:46;;;;;;;94.82;62.50;;;;;;;;;;5111950;27;20490;-72
2023/01/02 02:49:27;;;;;;;89.47;57.90;;;;;;;;;;5115747;27;20038;-73
2023/01/02 02:51:56;;;;;;;110.13;73.72;;;;;;;;;;5103542;27;20032;-73
2023/01/02 02:54:22;;;;;;;;;;;;;;;;;;5111343;27;20054;-73
2023/01/02 02:56:48;;;;;;;97.47;66.93;;;;;;;;;;5113122;27;19955;-72
2023/01/02 02:59:14;;;;;;;81.18;58.53;;;;;;;;;;5113308;27;20150;-73
2023/01/02 03:01:39;;;;;;;67.07;52.03;;;;;;;;;;5097329;27;20070;-74
2023/01/02 03:04:14;;;;;;;106.75;74.75;;;;;;;;;;5098029;27;20023;-72
2023/01/02 03:06:46;;;;;;;101.22;71.95;;;;;;;;;;5095172;27;20063;-74
2023/01/02 03:09:31;;;;;;;130.20;81.43;;;;;;;;;;5102666;27;20027;-73
2023/01/02 03:12:03;;;;;;;78.75;52.10;;;;;;;;;;5089447;27;20054;-73
2023/01/02 03:14:31;;;;;;;143.70;84.68;;;;;;;;;;5102789;27;20913;-72
2023/01/02 03:17:04;;;;;;;105.03;67.55;;;;;;;;;;5113744;27;20030;-73
2023/01/02 03:19:50;;;;;;;114.07;74.47;;;;;;;;;;5107600;27;20034;-77
2023/01/02 03:22:20;;;;;;;76.00;49.60;;;;;;;;;;5112142;27;20081;-72
2023/01/02 03:24:47;;;;;;;86.40;55.55;;;;;;;;;;5113298;27;20019;-73
2023/01/02 03:27:14;;;;;;;123.30;82.50;;;;;;;;;;5111228;27;20042;-71
2023/01/02 03:29:46;;;;;;;120.32;78.57;;;;;;;;;;5114332;27;20076;-72
2023/01/02 03:32:12;;;;;;;131.65;85.82;;;;;;;;;;5100271;27;20074;-74
2023/01/02 03:34:40;;;;;;;174.35;110.05;;;;;;;;;;5109411;27;20055;-74
2023/01/02 03:37:07;;;;;;;266.88;169.95;;;;;;;;;;5109507;27;20038;-72
2023/01/02 03:39:34;;;;;;;118.78;78.18;;;;;;;;;;5115247;27;20124;-73
2023/01/02 03:42:03;;;;;;;81.97;56.88;;;;;;;;;;5115443;27;20027;-73
2023/01/02 03:44:52;;;;;;;74.47;52.00;;;;;;;;;;5103915;27;20027;-72
2023/01/02 03:47:26;;;;;;;144.75;93.70;;;;;;;;;;5061272;27;21019;-75
2023/01/02 03:49:53;;;;;;;119.55;80.70;;;;;;;;;;5112124;27;20485;-71
2023/01/02 03:52:18;;;;;;;122.00;79.20;;;;;;;;;;5104577;27;20774;-72
2023/01/02 03:54:44;;;;;;;29.65;22.45;;;;;;;;;;5107133;27;20026;-71
2023/01/02 03:57:13;;;;;;;56.15;39.38;;;;;;;;;;5111979;27;20059;-73
2023/01/02 03:59:56;;;;;;;33.45;24.40;;;;;;;;;;5111583;27;20094;-74
2023/01/02 04:02:32;;;;;;;43.28;30.23;;;;;;;;;;5112436;27;20042;-73
2023/01/02 04:05:01;;;;;;;32.40;24.30;;;;;;;;;;5099561;27;20054;-73
2023/01/02 04:07:33;;;;;;;29.20;22.63;;;;;;;;;;5101407;27;20511;-73
2023/01/02 04:09:59;;;;;;;44.72;32.60;;;;;;;;;;5101095;27;20028;-73
2023/01/02 04:12:25;;;;;;;54.22;36.95;;;;;;;;;;5108357;27;20026;-71
2023/01/02 04:15:02;;;;;;;57.92;39.40;;;;;;;;;;5089623;27;20369;-73
2023/01/02 04:17:30;;;;;;;53.08;33.53;;;;;;;;;;5112973;27;20031;-73
2023/01/02 04:20:00;;;;;;;30.65;24.27;;;;;;;;;;5094658;27;20019;-73
2023/01/02 04:22:27;;;;;;;26.83;21.75;;;;;;;;;;5109271;27;20024;-72
2023/01/02 04:24:54;;;;;;;42.72;30.75;;;;;;;;;;5116325;27;20030;-73
2023/01/02 04:27:32;;;;;;;63.20;45.15;;;;;;;;;;5114353;27;20438;-71
2023/01/02 04:29:57;;;;;;;84.93;55.00;;;;;;;;;;5108313;27;20035;-72
2023/01/02 04:32:29;;;;;;;70.10;48.55;;;;;;;;;;5113212;27;20034;-72
2023/01/02 04:34:55;;;;;;;61.90;41.08;;;;;;;;;;5114253;27;20442;-72
2023/01/02 04:37:41;;;;;;;81.72;46.85;;;;;;;;;;5112044;27;20423;-73
2023/01/02 04:40:09;;;;;;;72.45;42.15;;;;;;;;;;5093372;27;20351;-72
2023/01/02 04:42:35;;;;;;;64.72;40.95;;;;;;;;;;5115147;27;20016;-74
2023/01/02 04:45:00;;;;;;;53.35;37.10;;;;;;;;;;5096418;27;20110;-72
2023/01/02 04:47:25;;;;;;;45.03;34.40;;;;;;;;;;5087263;28;20027;-75
2023/01/02 04:49:50;;;;;;;45.40;37.40;;;;;;;;;;5116034;27;20035;-73
2023/01/02 04:52:16;;;;;;;33.03;28.23;;;;;;;;;;5114347;28;20034;-72
2023/01/02 04:54:41;;;;;;;56.92;44.45;;;;;;;;;;5115490;28;20035;-73
2023/01/02 04:57:06;;;;;;;86.60;54.63;;;;;;;;;;5115965;28;20225;-73
2023/01/02 04:59:31;;;;;;;128.15;76.32;;;;;;;;;;5116168;28;20457;-71
2023/01/02 05:01:57;;;;;;;97.38;68.07;;;;;;;;;;5115018;28;20030;-73
2023/01/02 05:04:22;;;;;;;113.22;82.80;;;;;;;;;;5100156;28;20062;-76
2023/01/02 05:06:47;;;;;;;71.13;51.38;;;;;;;;;;5112032;27;20387;-74
2023/01/02 05:09:14;;;;;;;55.00;40.55;;;;;;;;;;5118780;27;20026;-72
2023/01/02 05:11:40;;;;;;;67.50;47.13;;;;;;;;;;5120435;27;20027;-72
2023/01/02 05:14:05;;;;;;;61.38;45.45;;;;;;;;;;5116679;27;20026;-72
2023/01/02 05:16:30;;;;;;;55.22;42.90;;;;;;;;;;5112635;27;20109;-73
2023/01/02 05:18:56;;;;;;;78.43;59.65;;;;;;;;;;5115995;27;20102;-72
2023/01/02 05:24:05;;;;;;;113.78;75.32;;;;;;;;;;5118296;27;20088;-73
2023/01/02 05:26:31;;;;;;;82.70;55.78;;;;;;;;;;5108590;27;20380;-75
2023/01/02 05:28:57;;;;;;;82.63;58.83;;;;;;;;;;5110307;27;20059;-73
2023/01/02 05:31:22;;;;;;;73.35;52.50;;;;;;;;;;5117311;27;20105;-73
2023/01/02 05:33:51;;;;;;;71.82;51.88;;;;;;;;;;5116709;27;20047;-73
2023/01/02 05:36:16;;;;;;;67.47;48.10;;;;;;;;;;5113823;27;20335;-74
2023/01/02 05:38:41;;;;;;;65.57;46.28;;;;;;;;;;5119345;27;20028;-75
2023/01/02 05:41:07;;;;;;;76.63;54.53;;;;;;;;;;5116605;27;20019;-72
2023/01/02 05:43:33;;;;;;;84.80;58.42;;;;;;;;;;5118675;27;20076;-71
2023/01/02 05:46:05;;;;;;;75.20;53.65;;;;;;;;;;5118197;27;20057;-71
2023/01/02 05:48:30;;;;;;;58.90;43.88;;;;;;;;;;5114410;27;20457;-73
2023/01/02 05:50:59;;;;;;;77.15;55.88;;;;;;;;;;5104919;27;20032;-71
2023/01/02 05:53:24;;;;;;;63.05;48.97;;;;;;;;;;5119191;27;20019;-74
2023/01/02 05:55:50;;;;;;;69.32;52.17;;;;;;;;;;5115259;27;20345;-71
2023/01/02 05:58:15;;;;;;;68.13;51.22;;;;;;;;;;5100996;27;20043;-73
2023/01/02 06:00:40;;;;;;;82.22;56.88;;;;;;;;;;5074440;28;20065;-72
2023/01/02 06:03:06;;;;;;;74.28;53.80;;;;;;;;;;5106833;28;20037;-71
2023/01/02 06:05:31;;;;;;;72.57;53.35;;;;;;;;;;5098603;28;20015;-74
2023/01/02 06:07:56;;;;;;;90.43;60.88;;;;;;;;;;5092744;28;20039;-74
2023/01/02 06:10:21;;;;;;;119.15;82.53;;;;;;;;;;5088689;28;20088;-72
2023/01/02 06:12:47;;;;;;;109.80;77.50;;;;;;;;;;5091237;28;20111;-73
2023/01/02 06:15:12;;;;;;;49.95;37.90;;;;;;;;;;5092309;28;20035;-72
2023/01/02 06:17:37;;;;;;;72.40;51.40;;;;;;;;;;5090045;28;20578;-73
2023/01/02 06:20:03;;;;;;;75.35;54.67;;;;;;;;;;5108149;28;20023;-73
2023/01/02 06:22:29;;;;;;;148.20;107.05;;;;;;;;;;5117121;28;20439;-71
2023/01/02 06:24:54;;;;;;;144.35;109.55;;;;;;;;;;5114944;28;20020;-73
2023/01/02 06:27:19;;;;;;;243.07;180.48;;;;;;;;;;5116146;28;20027;-72
2023/01/02 06:29:45;;;;;;;215.57;161.25;;;;;;;;;;5093326;28;20066;-72
2023/01/02 06:32:10;;;;;;;215.73;162.68;;;;;;;;;;5118045;28;20026;-72
2023/01/02 06:34:35;;;;;;;199.70;152.98;;;;;;;;;;5117289;28;20024;-72
2023/01/02 06:37:00;;;;;;;249.98;193.30;;;;;;;;;;5116518;28;20497;-70
2023/01/02 06:39:26;;;;;;;745.17;585.78;;;;;;;;;;5115757;28;20092;-72
2023/01/02 06:41:51;;;;;;;590.17;460.48;;;;;;;;;;5116530;28;20031;-74
2023/01/02 06:44:16;;;;;;;612.00;467.98;;;;;;;;;;5106653;28;20031;-73
2023/01/02 06:46:42;;;;;;;490.25;372.83;;;;;;;;;;5113658;28;20363;-72
2023/01/02 06:49:07;;;;;;;650.08;538.60;;;;;;;;;;5114497;28;20118;-73
2023/01/02 06:51:32;;;;;;;604.25;499.98;;;;;;;;;;5114574;28;20023;-73
2023/01/02 06:53:58;;;;;;;311.63;232.00;;;;;;;;;;5115924;28;20422;-75
2023/01/02 06:56:23;;;;;;;295.38;233.60;;;;;;;;;;5116557;28;20053;-73
2023/01/02 06:58:48;;;;;;;212.25;154.60;;;;;;;;;;5071484;27;1219560;-75
2023/01/02 07:01:18;;;;;;;203.65;152.80;;;;;;;;;;5115401;27;20031;-74
2023/01/02 07:03:43;;;;;;;208.25;153.90;;;;;;;;;;5116978;27;20015;-71
2023/01/02 07:06:10;;;;;;;259.40;202.20;;;;;;;;;;5115806;27;20390;-72
2023/01/02 07:08:36;;;;;;;236.60;178.57;;;;;;;;;;5103178;27;20027;-74
2023/01/02 07:11:07;;;;;;;246.10;183.25;;;;;;;;;;5101664;27;20035;-72
2023/01/02 07:13:32;;;;;;;318.67;252.57;;;;;;;;;;5101785;27;20016;-71
2023/01/02 07:16:00;;;;;;;268.67;211.93;;;;;;;;;;5097678;27;20429;-72
2023/01/02 07:18:26;;;;;;;261.13;208.88;;;;;;;;;;5096663;27;20090;-74
2023/01/02 07:20:54;;;;;;;250.90;202.88;;;;;;;;;;5097238;27;20023;-73
2023/01/02 07:23:19;;;;;;;454.23;374.75;;;;;;;;;;5104758;27;20417;-73
2023/01/02 07:25:49;;;;;;;235.68;185.57;;;;;;;;;;5114952;27;20024;-74
2023/01/02 07:28:14;;;;;;;265.52;214.90;;;;;;;;;;5113170;27;20031;-73
2023/01/02 07:30:40;;;;;;;299.65;240.02;;;;;;;;;;5117630;27;20031;-71
2023/01/02 07:33:05;;;;;;;165.60;138.05;;;;;;;;;;5113070;27;20047;-72
2023/01/02 07:35:30;;;;;;;119.15;98.75;;;;;;;;;;5109977;27;20775;-72
2023/01/02 07:37:55;;;;;;;113.93;92.45;;;;;;;;;;5097705;27;20055;-71
2023/01/02 07:40:21;;;;;;;106.32;83.47;;;;;;;;;;5092671;27;20027;-72
2023/01/02 07:42:46;;;;;;;109.22;88.72;;;;;;;;;;5091848;27;20031;-75
2023/01/02 07:45:11;;;;;;;102.82;80.47;;;;;;;;;;5091741;27;20055;-73
2023/01/02 07:47:37;;;;;;;112.43;89.25;;;;;;;;;;5098273;27;20037;-70
2023/01/02 07:50:02;;;;;;;118.03;95.78;;;;;;;;;;5102985;27;20084;-72
2023/01/02 07:52:27;;;;;;;167.40;131.00;;;;;;;;;;5099936;27;20067;-72
2023/01/02 07:54:53;;;;;;;147.27;119.35;;;;;;;;;;5102402;27;20054;-72
2023/01/02 07:57:18;;;;;;;124.75;108.68;;;;;;;;;;5095437;27;20376;-72
2023/01/02 07:59:45;;;;;;;92.30;77.60;;;;;;;;;;5102175;27;20051;-71
2023/01/02 08:02:11;;;;;;;111.05;91.97;;;;;;;;;;5110914;27;20039;-74
2023/01/02 08:04:36;;;;;;;120.50;102.30;;;;;;;;;;5112859;27;20015;-75
2023/01/02 08:07:01;;;;;;;102.85;82.70;;;;;;;;;;5101394;27;20512;-72
2023/01/02 08:09:27;;;;;;;112.68;89.95;;;;;;;;;;5091401;27;20035;-73
2023/01/02 08:11:52;;;;;;;94.45;76.82;;;;;;;;;;5098205;27;20054;-73
2023/01/02 08:14:18;;;;;;;90.90;68.30;;;;;;;;;;5099122;27;20110;-70
2023/01/02 08:16:43;;;;;;;108.82;83.05;;;;;;;;;;5099369;27;20088;-71
2023/01/02 08:19:08;;;;;;;114.60;89.97;;;;;;;;;;5096178;27;20702;-71
2023/01/02 08:21:33;;;;;;;95.22;80.22;;;;;;;;;;5095830;27;20023;-70
2023/01/02 08:23:59;;;;;;;84.20;71.50;;;;;;;;;;5098570;27;20059;-71
2023/01/02 08:26:24;;;;;;;104.43;87.50;;;;;;;;;;5096386;27;20456;-74
2023/01/02 08:28:50;;;;;;;127.30;93.32;;;;;;;;;;5102602;27;20038;-72
2023/01/02 08:31:17;;;;;;;94.88;77.50;;;;;;;;;;5101702;27;20079;-72
2023/01/02 08:33:42;;;;;;;63.83;54.03;;;;;;;;;;5100800;27;20024;-72
2023/01/02 08:36:08;;;;;;;62.22;47.97;;;;;;;;;;5099356;27;20453;-73
2023/01/02 08:38:33;;;;;;;60.15;45.65;;;;;;;;;;5093583;27;20091;-76
2023/01/02 08:40:58;;;;;;;90.38;67.13;;;;;;;;;;5098817;27;20142;-74
2023/01/02 08:43:24;;;;;;;53.67;47.63;;;;;;;;;;5100337;27;20019;-73
2023/01/02 08:45:49;;;;;;;48.47;38.00;;;;;;;;;;5098497;27;20106;-71
2023/01/02 08:48:15;;;;;;;48.17;42.83;;;;;;;;;;5096584;27;20038;-71
2023/01/02 08:50:40;;;;;;;52.60;42.92;;;;;;;;;;5100953;28;20057;-71
2023/01/02 08:53:05;;;;;;;53.50;42.03;;;;;;;;;;5101090;28;20453;-71
2023/01/02 08:55:31;;;;;;;38.28;31.67;;;;;;;;;;5098288;28;20038;-72
2023/01/02 08:57:56;;;;;;;34.65;28.08;;;;;;;;;;5096298;28;20043;-70
2023/01/02 09:00:21;;;;;;;38.55;31.50;;;;;;;;;;5093689;28;20110;-70
2023/01/02 09:02:46;;;;;;;38.10;33.47;;;;;;;;;;5103647;28;20027;-71
2023/01/02 09:05:12;;;;;;;43.92;34.28;;;;;;;;;;5106740;28;20051;-71
2023/01/02 09:07:37;;;;;;;45.50;40.60;;;;;;;;;;5095268;28;20497;-74
2023/01/02 09:10:02;;;;;;;40.55;32.85;;;;;;;;;;5094653;28;20470;-73
2023/01/02 09:12:28;;;;;;;45.90;36.80;;;;;;;;;;5096176;28;20026;-72
2023/01/02 09:14:53;;;;;;;39.63;35.42;;;;;;;;;;5108065;28;20045;-74
2023/01/02 09:17:18;;;;;;;55.47;42.60;;;;;;;;;;5113085;28;20358;-71
2023/01/02 09:19:44;;;;;;;47.03;37.08;;;;;;;;;;5113380;28;20318;-71
2023/01/02 09:22:09;;;;;;;109.78;64.55;;;;;;;;;;5111532;28;20032;-72
2023/01/02 09:24:34;;;;;;;92.60;57.00;;;;;;;;;;5113455;28;20027;-71
2023/01/02 09:27:00;;;;;;;44.58;32.88;;;;;;;;;;5096779;28;20133;-72
2023/01/02 09:29:25;;;;;;;44.25;32.58;;;;;;;;;;5110747;28;20028;-74
2023/01/02 09:31:50;;;;;;;107.32;71.68;;;;;;;;;;5091738;28;20032;-72
2023/01/02 09:34:16;;;;;;;39.95;33.17;;;;;;;;;;5088735;28;20023;-73
2023/01/02 09:36:41;;;;;;;40.13;33.00;;;;;;;;;;5100303;28;20480;-74
2023/01/02 09:39:06;;;;;;;52.58;39.55;;;;;;;;;;5100069;28;20069;-74
2023/01/02 09:41:36;;;;;;;39.72;32.50;;;;;;;;;;5093795;28;20020;-72
2023/01/02 09:44:04;;;;;;;61.05;46.05;;;;;;;;;;5097237;28;20020;-74
2023/01/02 09:46:33;;;;;;;42.20;35.63;;;;;;;;;;5106385;28;20028;-72
2023/01/02 09:49:00;;;;;;;40.10;32.85;;;;;;;;;;5099670;28;20046;-76
2023/01/02 09:51:26;;;;;;;69.72;52.80;;;;;;;;;;5095303;27;20099;-71
2023/01/02 09:53:51;;;;;;;46.20;39.25;;;;;;;;;;5098046;27;20434;-71
2023/01/02 09:56:22;;;;;;;44.03;35.13;;;;;;;;;;5096261;27;20072;-74
2023/01/02 09:58:50;;;;;;;30.05;26.23;;;;;;;;;;5092182;27;20055;-71
2023/01/02 10:01:19;;;;;;;32.35;28.17;;;;;;;;;;5096439;27;20031;-76
2023/01/02 10:03:45;;;;;;;;;;;;;;;;;;5101262;27;20102;-76
2023/01/02 10:06:10;;;;;;;22.00;18.17;;;;;;;;;;5101589;27;19998;-77
2023/01/02 10:08:54;;;;;;;25.13;22.27;;;;;;;;;;5092842;27;20153;-73
2023/01/02 10:11:22;;;;;;;116.63;92.43;;;;;;;;;;5091644;27;20373;-76
2023/01/02 10:14:01;;;;;;;105.88;94.80;;;;;;;;;;5098404;27;20027;-74
2023/01/02 10:16:30;;;;;;;25.80;22.60;;;;;;;;;;5111457;27;20027;-74
2023/01/02 10:18:57;;;;;;;26.35;23.58;;;;;;;;;;5075329;27;20599;-76
2023/01/02 10:21:24;;;;;;;20.15;17.85;;;;;;;;;;5097143;27;20331;-74
2023/01/02 10:23:57;;;;;;;15.23;12.38;;;;;;;;;;5114360;27;20055;-73
2023/01/02 10:26:24;;;;;;;10.75;7.38;;;;;;;;;;5115701;27;20051;-74
2023/01/02 10:28:53;;;;;;;9.57;7.10;;;;;;;;;;5105137;27;20027;-73
2023/01/02 10:31:33;;;;;;;10.32;6.35;;;;;;;;;;5106541;27;20106;-74
2023/01/02 10:34:00;;;;;;;6.85;5.82;;;;;;;;;;5096085;27;20044;-71
2023/01/02 10:36:33;;;;;;;12.02;10.73;;;;;;;;;;5114782;27;20027;-75
2023/01/02 10:39:00;;;;;;;16.55;13.00;;;;;;;;;;5110253;27;20027;-72
2023/01/02 10:41:26;;;;;;;18.13;10.18;;;;;;;;;;5117805;27;20019;-73
2023/01/02 10:43:53;;;;;;;15.88;11.43;;;;;;;;;;5117035;27;20022;-72
2023/01/02 10:46:18;;;;;;;9.50;8.02;;;;;;;;;;5117507;27;20034;-72
2023/01/02 10:48:44;;;;;;;12.00;7.75;;;;;;;;;;5117298;27;20031;-72
2023/01/02 10:51:12;;;;;;;11.48;6.40;;;;;;;;;;5117236;27;20408;-73
2023/01/02 10:53:37;;;;;;;12.95;7.60;;;;;;;;;;5112792;27;20598;-75
2023/01/02 10:56:03;;;;;;;15.25;8.57;;;;;;;;;;5115880;27;20064;-73
2023/01/02 10:58:29;;;;;;;10.43;5.28;;;;;;;;;;5116800;27;20047;-72
2023/01/02 11:01:05;;;;;;;10.73;7.07;;;;;;;;;;5115758;27;20019;-72
2023/01/02 11:03:30;;;;;;;9.35;5.10;;;;;;;;;;5113429;27;20110;-71
2023/01/02 11:05:57;;;;;;;12.82;5.75;;;;;;;;;;5118307;27;20497;-71
2023/01/02 11:08:23;;;;;;;7.57;5.15;;;;;;;;;;5115520;27;20370;-72
2023/01/02 11:10:50;;;;;;;9.23;5.72;;;;;;;;;;5118373;27;20027;-72
2023/01/02 11:13:20;;;;;;;11.93;5.82;;;;;;;;;;5119101;27;20042;-74
2023/01/02 11:15:50;;;;;;;13.05;7.35;;;;;;;;;;5112359;27;20035;-70
2023/01/02 11:18:18;;;;;;;13.93;8.23;;;;;;;;;;5117251;27;20027;-74
2023/01/02 11:20:48;;;;;;;77.18;62.67;;;;;;;;;;5115842;27;20023;-71
2023/01/02 11:23:14;;;;;;;105.32;85.97;;;;;;;;;;5116573;27;20038;-71
2023/01/02 11:25:40;;;;;;;33.45;27.90;;;;;;;;;;5114073;27;20095;-70
2023/01/02 11:28:06;;;;;;;32.08;27.90;;;;;;;;;;5114398;27;20331;-73
2023/01/02 11:30:31;;;;;;;15.48;10.80;;;;;;;;;;5116010;27;20731;-72
2023/01/02 11:33:01;;;;;;;21.27;14.30;;;;;;;;;;5117808;27;20019;-72
2023/01/02 11:35:38;;;;;;;20.58;12.48;;;;;;;;;;5116463;27;20284;-71
2023/01/02 11:38:03;;;;;;;18.65;11.95;;;;;;;;;;5115957;27;20418;-72
2023/01/02 11:40:31;;;;;;;27.25;16.10;;;;;;;;;;5116280;27;20039;-71
2023/01/02 11:45:45;;;;;;;12.93;7.93;;;;;;;;;;5115403;27;20346;-71
2023/01/02 11:48:16;;;;;;;11.30;7.13;;;;;;;;;;5114918;27;20027;-72
2023/01/02 11:50:41;;;;;;;10.38;6.13;;;;;;;;;;5118720;27;20038;-72
2023/01/02 11:53:13;;;;;;;10.73;6.28;;;;;;;;;;5115274;27;20031;-72
2023/01/02 11:55:54;;;;;;;7.28;6.15;;;;;;;;;;5116854;27;20034;-72
2023/01/02 11:58:22;;;;;;;5.28;4.78;;;;;;;;;;5114685;27;20055;-73
2023/01/02 12:00:50;;;;;;;5.65;4.10;;;;;;;;;;5113970;27;20027;-74
2023/01/02 12:03:18;;;;;;;7.03;4.50;;;;;;;;;;5115751;27;20432;-72
2023/01/02 12:05:54;;;;;;;8.38;6.05;;;;;;;;;;5116536;27;20055;-74
2023/01/02 12:08:26;;;;;;;7.40;4.30;;;;;;;;;;5113873;27;20034;-75
2023/01/02 12:10:52;;;;;;;10.43;5.43;;;;;;;;;;5113252;27;20035;-73
2023/01/02 12:13:36;;;;;;;4.88;4.32;;;;;;;;;;5114314;27;20391;-73
2023/01/02 12:16:11;;;;;;;5.95;4.97;;;;;;;;;;5114035;27;20430;-72
2023/01/02 12:18:52;;;;;;;20.40;17.10;;;;;;;;;;5116666;27;20104;-72
2023/01/02 12:21:21;;;;;;;6.07;4.70;;;;;;;;;;5114728;27;20027;-72
2023/01/02 12:24:04;;;;;;;17.00;5.82;;;;;;;;;;5112994;27;20338;-71
2023/01/02 12:26:29;;;;;;;12.60;6.53;;;;;;;;;;5112926;27;20028;-72
2023/01/02 12:29:07;;;;;;;9.27;7.17;;;;;;;;;;5116333;27;20543;-72
2023/01/02 12:31:32;;;;;;;11.55;6.80;;;;;;;;;;5116227;27;20267;-72
2023/01/02 12:34:06;;;;;;;9.80;7.20;;;;;;;;;;5116609;27;20019;-71
2023/01/02 12:36:36;;;;;;;12.20;6.65;;;;;;;;;;5116742;27;20290;-72
2023/01/02 12:39:04;;;;;;;11.38;5.80;;;;;;;;;;5115551;27;20034;-72
2023/01/02 12:41:39;;;;;;;10.27;8.18;;;;;;;;;;5116270;27;20019;-71
2023/01/02 12:44:04;;;;;;;12.77;9.57;;;;;;;;;;5113779;27;20380;-72
2023/01/02 12:46:38;;;;;;;20.90;12.10;;;;;;;;;;5112952;27;20106;-72
2023/01/02 12:49:06;;;;;;;18.45;11.73;;;;;;;;;;5115919;27;20670;-73
2023/01/02 12:51:41;;;;;;;18.00;11.43;;;;;;;;;;5114891;27;20035;-71
2023/01/02 12:54:18;;;;;;;12.65;6.38;;;;;;;;;;5113458;28;20032;-73
2023/01/02 12:57:19;;;;;;;17.40;7.50;;;;;;;;;;5114910;28;20042;-71
2023/01/02 12:59:50;;;;;;;11.43;7.05;;;;;;;;;;5031217;28;20049;-71
2023/01/02 13:02:34;;;;;;;10.02;5.97;;;;;;;;;;5029298;28;20045;-71
2023/01/02 13:05:04;;;;;;;9.35;6.47;;;;;;;;;;5033369;28;20045;-71
2023/01/02 13:07:34;;;;;;;8.60;5.40;;;;;;;;;;5029742;28;20044;-71
2023/01/02 13:10:01;;;;;;;11.65;7.20;;;;;;;;;;5009461;28;20497;-71
2023/01/02 13:12:28;;;;;;;24.00;8.02;;;;;;;;;;5024693;28;20041;-71
2023/01/02 13:15:08;;;;;;;14.02;9.43;;;;;;;;;;5028960;28;20037;-72
2023/01/02 13:17:37;;;;;;;13.07;7.07;;;;;;;;;;5027040;28;20574;-71
2023/01/02 13:20:09;;;;;;;27.55;11.82;;;;;;;;;;5029826;28;20040;-72
2023/01/02 13:22:41;;;;;;;13.25;9.00;;;;;;;;;;5028383;28;20071;-71
2023/01/02 13:25:12;;;;;;;17.42;10.32;;;;;;;;;;5030869;28;20094;-70
2023/01/02 13:27:37;;;;;;;17.13;13.80;;;;;;;;;;5036605;28;20128;-73
2023/01/02 13:30:02;;;;;;;24.95;16.88;;;;;;;;;;5035863;28;20515;-71
2023/01/02 13:32:29;;;;;;;19.08;13.13;;;;;;;;;;5035074;28;20041;-70
2023/01/02 13:34:55;;;;;;;12.27;9.65;;;;;;;;;;5118276;27;21224;-71
2023/01/02 13:37:23;;;;;;;22.23;13.60;;;;;;;;;;5120086;27;20046;-71
2023/01/02 13:39:50;;;;;;;10.45;9.32;;;;;;;;;;5121737;27;20023;-70
2023/01/02 13:45:18;;;;;;;19.95;16.90;;;;;;;;;;5116187;27;20092;-72
2023/01/02 13:47:52;;;;;;;13.60;12.17;;;;;;;;;;5119539;27;20031;-72
2023/01/02 13:50:19;;;;;;;17.33;15.30;;;;;;;;;;5118743;27;20296;-71
2023/01/02 13:53:03;;;;;;;24.20;17.02;;;;;;;;;;5114460;27;20030;-71
2023/01/02 13:55:31;;;;;;;22.95;20.50;;;;;;;;;;5118880;27;20114;-71
2023/01/02 13:58:17;;;;;;;16.42;13.13;;;;;;;;;;5116354;27;20401;-72
2023/01/02 14:00:53;;;;;;;36.65;30.52;;;;;;;;;;5117807;27;20114;-72
2023/01/02 14:03:26;;;;;;;73.93;56.05;;;;;;;;;;5113594;27;20440;-73
2023/01/02 14:05:59;;;;;;;73.65;56.35;;;;;;;;;;5116382;27;20028;-72
2023/01/02 14:08:38;;;;;;;40.72;32.25;;;;;;;;;;5118136;27;20038;-71
2023/01/02 14:11:08;;;;;;;36.78;33.08;;;;;;;;;;5118644;27;20032;-74
2023/01/02 14:13:42;;;;;;;28.08;25.17;;;;;;;;;;5118262;27;20450;-71
2023/01/02 14:16:37;;;;;;;20.70;17.95;;;;;;;;;;5118351;27;20026;-72
2023/01/02 14:19:11;;;;;;;30.83;26.73;;;;;;;;;;5012709;28;20136;-73
2023/01/02 14:21:38;;;;;;;28.42;24.52;;;;;;;;;;5014089;28;20437;-71
2023/01/02 14:24:04;;;;;;;20.98;18.70;;;;;;;;;;5014233;28;20164;-71
2023/01/02 14:26:34;;;;;;;24.15;21.13;;;;;;;;;;5013537;28;20033;-72
2023/01/02 14:29:06;;;;;;;23.77;19.67;;;;;;;;;;5011548;28;20145;-71
2023/01/02 14:31:33;;;;;;;30.48;22.67;;;;;;;;;;5009671;28;20062;-74